Accueil
METAR-TAF:

METAR-TAF

Aéroports :

Base aérienne 107 Villacoublay

Villacoublay, France

latitude: 48-46N, longitude: 002-12E, altitude: 177 m

Observation

Le bulletin a été fait il y a 29 minutes, à 08:00 UTC
Vent 10 kt de nord/nord-est
Température 7°C
Humidité 70%
Pression 1025 hPa
Visibilité 10 km ou plus
pas de nuages en-dessous de 1500 mètres et pas de cumulonimbus.

METAR: LFPV 170800Z AUTO 03010KT CAVOK 07/02 Q1025 NOSIG

Heure: 10:29 (08:29 UTC)

Prévision

Le bulletin a été fait il y a 6 heures et 29 minutes, à 02:00 UTC
Prévision valable du 17 à 03 UTC au 18 à 03 UTC
Vent 10 kt de nord/nord-est
Visibilité 10 km ou plus
pas de nuages en-dessous de 1500 mètres et pas de cumulonimbus.
Temporairement
du 17 à 13 UTC au 17 à 17 UTC
Vent 10 kt de nord/nord-est avec des rafales jusqu'à 25 kt

TAF: LFPV 170200Z 1703/1803 02010KT CAVOK TX12/1715Z TN03/1706Z TEMPO 1713/1717 02010G25KT

Observations et prévisions météorologiques de plus de 4000 aéroports (messages METAR et TAF).

Les stations disponibles sont représentées par des disques jaunes et rouges sur la carte.

Passer la souris dessus pour voir le nom de la station.

Cliquer dessus pour voir les observations et prévisions météorologiques.

Pour changer de carte: cliquez sur les boutons verts avec une croix noire pour zoomer, sur le bouton vert avec un tiret pour effectuer un zoom arrière, ou sur les flèches vertes pour les cartes adjacentes.


METAR-TAF: